createdAt,value
2018-06-14T00:00:46.319Z,22.21
2018-06-14T00:01:46.289Z,22.19
2018-06-14T00:02:46.387Z,22.19
2018-06-14T00:03:46.322Z,22.19
2018-06-14T00:04:46.441Z,22.19
2018-06-14T00:05:46.197Z,22.17
2018-06-14T00:06:46.263Z,22.18
2018-06-14T00:07:46.447Z,22.18
2018-06-14T00:08:46.385Z,22.19
2018-06-14T00:09:46.385Z,22.17
2018-06-14T00:10:46.382Z,22.19
2018-06-14T00:11:46.428Z,22.18
2018-06-14T00:12:46.488Z,22.18
2018-06-14T00:13:46.355Z,22.18
2018-06-14T00:14:46.426Z,22.19
2018-06-14T00:15:46.413Z,22.18
2018-06-14T00:16:46.267Z,22.19
2018-06-14T00:17:46.396Z,22.19
2018-06-14T00:18:46.384Z,22.19
2018-06-14T00:19:46.294Z,22.19
2018-06-14T00:20:46.575Z,22.18
2018-06-14T00:21:46.215Z,22.18
2018-06-14T00:22:46.374Z,22.17
2018-06-14T00:23:46.405Z,22.17
2018-06-14T00:24:46.621Z,22.16
2018-06-14T00:25:46.199Z,22.16
2018-06-14T00:26:46.402Z,22.16
2018-06-14T00:27:46.290Z,22.17
2018-06-14T00:28:46.339Z,22.18
2018-06-14T00:29:46.376Z,22.16
2018-06-14T00:30:46.612Z,22.17
2018-06-14T00:31:46.329Z,22.17
2018-06-14T00:32:46.354Z,22.16
2018-06-14T00:33:46.616Z,22.16
2018-06-14T00:34:46.278Z,22.17
2018-06-14T00:35:46.355Z,22.16
2018-06-14T00:36:46.375Z,22.16
2018-06-14T00:37:46.502Z,22.17
2018-06-14T00:38:46.671Z,22.16
2018-06-14T00:39:46.272Z,22.16
2018-06-14T00:40:46.311Z,22.14
2018-06-14T00:41:46.347Z,22.15
2018-06-14T00:42:46.423Z,22.15
2018-06-14T00:43:46.284Z,22.15
2018-06-14T00:44:46.335Z,22.15
2018-06-14T00:45:46.411Z,22.15
2018-06-14T00:46:46.493Z,22.15
2018-06-14T00:47:46.398Z,22.15
2018-06-14T00:48:46.302Z,22.14
2018-06-14T00:49:46.519Z,22.15
2018-06-14T00:50:46.583Z,22.14
2018-06-14T00:51:46.316Z,22.16
2018-06-14T00:52:56.247Z,22.14
2018-06-14T00:53:46.509Z,22.14
2018-06-14T00:54:46.281Z,22.15
2018-06-14T00:55:46.453Z,22.15
2018-06-14T00:56:46.425Z,22.15
2018-06-14T00:57:46.248Z,22.15
2018-06-14T00:58:46.414Z,22.16
2018-06-14T00:59:46.323Z,22.15
2018-06-14T01:00:46.372Z,22.14
2018-06-14T01:01:46.392Z,22.15
2018-06-14T01:02:46.458Z,22.15
2018-06-14T01:03:46.433Z,22.13
2018-06-14T01:04:46.499Z,22.15
2018-06-14T01:05:46.252Z,22.13
2018-06-14T01:06:46.511Z,22.14
2018-06-14T01:07:46.424Z,22.13
2018-06-14T01:08:46.403Z,22.13
2018-06-14T01:09:46.243Z,22.14
2018-06-14T01:10:46.437Z,22.14
2018-06-14T01:11:46.441Z,22.13
2018-06-14T01:12:46.506Z,22.14
2018-06-14T01:13:46.190Z,22.14
2018-06-14T01:14:46.255Z,22.12
2018-06-14T01:15:46.396Z,22.13
2018-06-14T01:16:46.269Z,22.14
2018-06-14T01:17:46.458Z,22.14
2018-06-14T01:18:46.321Z,22.12
2018-06-14T01:19:46.477Z,22.13
2018-06-14T01:20:46.362Z,22.12
2018-06-14T01:21:46.253Z,22.13
2018-06-14T01:22:46.221Z,22.13
2018-06-14T01:23:46.351Z,22.12
2018-06-14T01:24:46.346Z,22.12
2018-06-14T01:25:46.389Z,22.13
2018-06-14T01:26:46.523Z,22.11
2018-06-14T01:27:46.278Z,22.13
2018-06-14T01:28:46.806Z,22.12
2018-06-14T01:29:46.397Z,22.12
2018-06-14T01:30:46.410Z,22.13
2018-06-14T01:31:46.259Z,22.11
2018-06-14T01:32:46.272Z,22.11
2018-06-14T01:33:46.350Z,22.11
2018-06-14T01:34:46.481Z,22.12
2018-06-14T01:35:46.424Z,22.1
2018-06-14T01:36:46.366Z,22.1
2018-06-14T01:37:46.451Z,22.11
2018-06-14T01:38:46.315Z,22.11
2018-06-14T01:39:46.442Z,22.1
2018-06-14T01:40:46.252Z,22.11
2018-06-14T01:41:46.385Z,22.11
2018-06-14T01:42:46.359Z,22.12
2018-06-14T01:43:46.455Z,22.11
2018-06-14T01:44:46.299Z,22.11
2018-06-14T01:45:46.375Z,22.11
2018-06-14T01:46:46.214Z,22.11
2018-06-14T01:47:46.388Z,22.11
2018-06-14T01:48:46.308Z,22.11
2018-06-14T01:49:46.158Z,22.11
2018-06-14T01:50:46.291Z,22.12
2018-06-14T01:51:46.364Z,22.12
2018-06-14T01:52:46.420Z,22.11
2018-06-14T01:53:46.427Z,22.1
2018-06-14T01:54:46.242Z,22.11
2018-06-14T01:55:46.299Z,22.11
2018-06-14T01:56:46.635Z,22.09
2018-06-14T01:57:46.263Z,22.1
2018-06-14T01:58:46.321Z,22.09
2018-06-14T01:59:46.306Z,22.1
2018-06-14T02:00:46.350Z,22.11
2018-06-14T02:01:46.205Z,22.1
2018-06-14T02:02:46.597Z,22.11
2018-06-14T02:03:46.397Z,22.09
2018-06-14T02:04:46.220Z,22.09
2018-06-14T02:05:46.491Z,22.08
2018-06-14T02:06:46.386Z,22.08
2018-06-14T02:07:46.241Z,22.09
2018-06-14T02:08:46.279Z,22.07
2018-06-14T02:09:46.305Z,22.1
2018-06-14T02:10:46.418Z,22.07
2018-06-14T02:11:46.369Z,22.08
2018-06-14T02:12:46.308Z,22.07
2018-06-14T02:13:46.351Z,22.09
2018-06-14T02:14:46.406Z,22.08
2018-06-14T02:15:46.349Z,22.1
2018-06-14T02:16:46.330Z,22.1
2018-06-14T02:17:46.224Z,22.07
2018-06-14T02:18:46.389Z,22.1
2018-06-14T02:19:46.426Z,22.09
2018-06-14T02:20:46.277Z,22.09
2018-06-14T02:21:46.353Z,22.08
2018-06-14T02:22:46.319Z,22.08
2018-06-14T02:23:46.360Z,22.09
2018-06-14T02:24:46.367Z,22.1
2018-06-14T02:25:46.298Z,22.08
2018-06-14T02:26:46.262Z,22.08
2018-06-14T02:27:46.469Z,22.07
2018-06-14T02:28:46.321Z,22.08
2018-06-14T02:29:46.315Z,22.07
2018-06-14T02:30:46.333Z,22.08
2018-06-14T02:31:46.369Z,22.06
2018-06-14T02:32:46.341Z,22.06
2018-06-14T02:33:46.309Z,22.06
2018-06-14T02:34:46.191Z,22.05
2018-06-14T02:35:46.286Z,22.06
2018-06-14T02:36:46.469Z,22.07
2018-06-14T02:37:46.609Z,22.06
2018-06-14T02:38:46.623Z,22.05
2018-06-14T02:39:46.404Z,22.07
2018-06-14T02:40:46.344Z,22.06
2018-06-14T02:41:46.364Z,22.05
2018-06-14T02:42:46.300Z,22.06
2018-06-14T02:43:46.301Z,22.07
2018-06-14T02:44:46.538Z,22.06
2018-06-14T02:45:46.316Z,22.07
2018-06-14T02:46:46.213Z,22.07
2018-06-14T02:47:46.228Z,22.06
2018-06-14T02:48:46.251Z,22.07
2018-06-14T02:49:46.339Z,22.05
2018-06-14T02:50:46.408Z,22.06
2018-06-14T02:51:46.378Z,22.06
2018-06-14T02:52:46.302Z,22.06
2018-06-14T02:53:46.250Z,22.05
2018-06-14T02:54:46.363Z,22.07
2018-06-14T02:55:46.328Z,22.07
2018-06-14T02:56:46.449Z,22.06
2018-06-14T02:57:46.239Z,22.06
2018-06-14T02:58:46.344Z,22.06
2018-06-14T02:59:46.314Z,22.05
2018-06-14T03:00:46.166Z,22.07
2018-06-14T03:01:46.387Z,22.06
2018-06-14T03:02:46.456Z,22.07
2018-06-14T03:03:56.325Z,22.06
2018-06-14T03:04:46.560Z,22.05
2018-06-14T03:05:46.525Z,22.06
2018-06-14T03:06:46.391Z,22.05
2018-06-14T03:07:46.569Z,22.06
2018-06-14T03:08:46.095Z,22.05
2018-06-14T03:09:46.232Z,22.06
2018-06-14T03:10:46.378Z,22.06
2018-06-14T03:11:46.393Z,22.05
2018-06-14T03:12:46.391Z,22.06
2018-06-14T03:13:46.299Z,22.05
2018-06-14T03:14:46.300Z,22.06
2018-06-14T03:15:46.286Z,22.06
2018-06-14T03:16:46.422Z,22.06
2018-06-14T03:17:46.516Z,22.06
2018-06-14T03:18:46.293Z,22.06
2018-06-14T03:19:46.304Z,22.07
2018-06-14T03:20:46.357Z,22.06
2018-06-14T03:21:46.355Z,22.05
2018-06-14T03:22:46.370Z,22.04
2018-06-14T03:23:46.227Z,22.05
2018-06-14T03:24:46.210Z,22.05
2018-06-14T03:25:46.615Z,22.06
2018-06-14T03:26:46.182Z,22.05
2018-06-14T03:27:46.384Z,22.06
2018-06-14T03:28:46.482Z,22.06
2018-06-14T03:29:46.330Z,22.05
2018-06-14T03:30:46.289Z,22.06
2018-06-14T03:31:46.249Z,22.05
2018-06-14T03:32:46.173Z,22.04
2018-06-14T03:33:46.277Z,22.05
2018-06-14T03:34:46.405Z,22.05
2018-06-14T03:35:46.407Z,22.05
2018-06-14T03:36:46.246Z,22.05
2018-06-14T03:37:46.352Z,22.04
2018-06-14T03:38:46.191Z,22.04
2018-06-14T03:39:46.388Z,22.04
2018-06-14T03:40:46.424Z,22.04
2018-06-14T03:41:46.285Z,22.05
2018-06-14T03:42:46.233Z,22.05
2018-06-14T03:43:46.400Z,22.04
2018-06-14T03:44:46.177Z,22.03
2018-06-14T03:45:46.324Z,22.05
2018-06-14T03:46:46.358Z,22.04
2018-06-14T03:47:46.544Z,22.04
2018-06-14T03:48:46.271Z,22.05
2018-06-14T03:49:46.471Z,22.03
2018-06-14T03:50:46.458Z,22.04
2018-06-14T03:51:46.175Z,22.05
2018-06-14T03:52:46.466Z,22.03
2018-06-14T03:53:46.218Z,22.02
2018-06-14T03:54:46.377Z,22.04
2018-06-14T03:55:46.173Z,22.05
2018-06-14T03:56:46.295Z,22.03
2018-06-14T03:57:46.320Z,22.04
2018-06-14T03:58:46.365Z,22.03
2018-06-14T03:59:46.271Z,22.03
2018-06-14T04:00:46.164Z,22.04
2018-06-14T04:01:46.366Z,22.03
2018-06-14T04:02:46.270Z,22.03
2018-06-14T04:03:46.393Z,22.04
2018-06-14T04:04:46.266Z,22.04
2018-06-14T04:05:46.453Z,22.04
2018-06-14T04:06:46.301Z,22.04
2018-06-14T04:07:46.315Z,22.05
2018-06-14T04:08:46.323Z,22.04
2018-06-14T04:09:46.154Z,22.04
2018-06-14T04:10:46.282Z,22.05
2018-06-14T04:11:46.285Z,22.04
2018-06-14T04:12:46.302Z,22.05
2018-06-14T04:13:46.397Z,22.05
2018-06-14T04:14:46.282Z,22.04
2018-06-14T04:15:46.352Z,22.05
2018-06-14T04:16:46.412Z,22.03
2018-06-14T04:17:46.453Z,22.02
2018-06-14T04:18:46.455Z,22.03
2018-06-14T04:19:46.432Z,22.03
2018-06-14T04:20:46.376Z,22.04
2018-06-14T04:21:46.350Z,22.04
2018-06-14T04:22:46.410Z,22.04
2018-06-14T04:23:46.388Z,22.03
2018-06-14T04:24:46.377Z,22.04
2018-06-14T04:25:46.251Z,22.02
2018-06-14T04:26:46.362Z,22.04
2018-06-14T04:27:56.370Z,22.03
2018-06-14T04:28:46.502Z,22.03
2018-06-14T04:29:46.311Z,22.03
2018-06-14T04:30:46.232Z,22.04
2018-06-14T04:31:46.366Z,22.04
2018-06-14T04:32:46.271Z,22.03
2018-06-14T04:33:46.349Z,22.04
2018-06-14T04:34:46.179Z,22.03
2018-06-14T04:35:46.310Z,22.04
2018-06-14T04:36:46.394Z,22.04
2018-06-14T04:37:46.469Z,22.04
2018-06-14T04:38:46.256Z,22.03
2018-06-14T04:39:46.366Z,22.03
2018-06-14T04:40:46.243Z,22.03
2018-06-14T04:41:46.163Z,22.02
2018-06-14T04:42:46.126Z,22.03
2018-06-14T04:43:46.300Z,22.04
2018-06-14T04:44:46.398Z,22.03
2018-06-14T04:45:46.345Z,22.04
2018-06-14T04:46:46.294Z,22.03
2018-06-14T04:47:46.177Z,22.02
2018-06-14T04:48:46.313Z,22.02
2018-06-14T04:49:46.196Z,22.02
2018-06-14T04:50:46.153Z,22.02
2018-06-14T04:51:46.315Z,22.02
2018-06-14T04:52:46.160Z,22.05
2018-06-14T04:53:46.195Z,22.04
2018-06-14T04:54:46.265Z,22.04
2018-06-14T04:55:46.360Z,22.04
2018-06-14T04:56:46.220Z,22.05
2018-06-14T04:57:46.339Z,22.04
2018-06-14T04:58:46.483Z,22.04
2018-06-14T04:59:46.169Z,22.02
2018-06-14T05:00:46.294Z,22.02
2018-06-14T05:01:46.550Z,22.02
2018-06-14T05:02:46.581Z,22.02
2018-06-14T05:03:46.200Z,22.03
2018-06-14T05:04:46.399Z,22.02
2018-06-14T05:05:46.757Z,22.01
2018-06-14T05:06:46.251Z,22.02
2018-06-14T05:07:46.213Z,22.02
2018-06-14T05:08:46.364Z,22.02
2018-06-14T05:09:46.579Z,22.01
2018-06-14T05:10:46.205Z,22.03
2018-06-14T05:11:46.297Z,22.02
2018-06-14T05:12:46.373Z,22.02
2018-06-14T05:13:46.527Z,22.03
2018-06-14T05:14:46.333Z,22.01
2018-06-14T05:15:46.164Z,22.03
2018-06-14T05:16:46.424Z,22.02
2018-06-14T05:17:46.258Z,22.03
2018-06-14T05:18:46.366Z,22.02
2018-06-14T05:20:01.638Z,22.02
2018-06-14T05:20:46.248Z,22.01
2018-06-14T05:21:46.223Z,22.01
2018-06-14T05:22:46.591Z,22.01
2018-06-14T05:23:46.428Z,22.02
2018-06-14T05:24:56.274Z,22.01
2018-06-14T05:25:46.482Z,22.02
2018-06-14T05:26:46.305Z,22.01
2018-06-14T05:27:46.254Z,22.03
2018-06-14T05:28:46.380Z,22.02
2018-06-14T05:29:46.150Z,22.01
2018-06-14T05:30:46.215Z,22.02
2018-06-14T05:31:46.300Z,22.02
2018-06-14T05:32:46.184Z,22
2018-06-14T05:33:46.486Z,22.01
2018-06-14T05:34:46.308Z,22.02
2018-06-14T05:35:46.388Z,22.01
2018-06-14T05:36:46.239Z,22.02
2018-06-14T05:37:46.425Z,22.03
2018-06-14T05:38:46.421Z,22.02
2018-06-14T05:39:46.157Z,22.02
2018-06-14T05:40:46.283Z,22.02
2018-06-14T05:41:46.229Z,22.01
2018-06-14T05:42:46.556Z,22.02
2018-06-14T05:43:46.432Z,22.02
2018-06-14T05:44:46.211Z,22.01
2018-06-14T05:45:46.142Z,22.01
2018-06-14T05:46:46.406Z,22.01
2018-06-14T05:47:46.335Z,22.01
2018-06-14T05:48:46.284Z,21.99
2018-06-14T05:49:46.298Z,22.01
2018-06-14T05:50:46.401Z,22.02
2018-06-14T05:51:46.232Z,22.07
2018-06-14T05:52:46.207Z,22.1
2018-06-14T05:53:46.302Z,22.11
2018-06-14T05:54:46.168Z,22.12
2018-06-14T05:55:46.168Z,22.11
2018-06-14T05:56:46.297Z,22.1
2018-06-14T05:57:46.277Z,22.11
2018-06-14T05:58:46.065Z,22.11
2018-06-14T05:59:46.182Z,22.11
2018-06-14T06:00:46.164Z,22.11
2018-06-14T06:01:46.245Z,22.12
2018-06-14T06:02:46.355Z,22.1
2018-06-14T06:03:46.184Z,22.1
2018-06-14T06:04:46.377Z,22.12
2018-06-14T06:05:46.210Z,22.1
2018-06-14T06:06:46.278Z,22.11
2018-06-14T06:07:46.204Z,22.1
2018-06-14T06:08:46.257Z,22.11
2018-06-14T06:09:46.253Z,22.1
2018-06-14T06:10:46.258Z,22.11
2018-06-14T06:11:46.238Z,22.1
2018-06-14T06:12:46.170Z,22.11
2018-06-14T06:13:46.400Z,22.12
2018-06-14T06:14:46.216Z,22.09
2018-06-14T06:15:46.359Z,22.13
2018-06-14T06:16:46.218Z,22.11
2018-06-14T06:17:46.333Z,22.11
2018-06-14T06:18:46.385Z,22.11
2018-06-14T06:19:46.359Z,22.11
2018-06-14T06:20:46.278Z,22.1
2018-06-14T06:21:46.153Z,22.11
2018-06-14T06:22:46.288Z,22.12
2018-06-14T06:23:46.322Z,22.11
2018-06-14T06:24:46.254Z,22.11
2018-06-14T06:25:46.221Z,22.1
2018-06-14T06:26:46.520Z,22.09
2018-06-14T06:27:46.395Z,22.08
2018-06-14T06:28:46.175Z,22.07
2018-06-14T06:29:46.316Z,22.06
2018-06-14T06:30:46.129Z,22.07
2018-06-14T06:31:46.364Z,22.06
2018-06-14T06:32:46.232Z,22.06
2018-06-14T06:33:46.437Z,22.07
2018-06-14T06:34:46.412Z,22.07
2018-06-14T06:35:46.255Z,22.09
2018-06-14T06:36:46.466Z,22.11
2018-06-14T06:37:46.348Z,22.13
2018-06-14T06:38:46.386Z,22.13
2018-06-14T06:39:46.222Z,22.12
2018-06-14T06:40:46.345Z,22.1
2018-06-14T06:41:46.348Z,22.12
2018-06-14T06:42:46.321Z,22.14
2018-06-14T06:43:47.077Z,22.13
2018-06-14T06:44:46.285Z,22.12
2018-06-14T06:45:46.216Z,22.13
2018-06-14T06:46:46.352Z,22.15
2018-06-14T06:47:46.485Z,22.14
2018-06-14T06:48:56.176Z,22.14
2018-06-14T06:49:46.302Z,22.14
2018-06-14T06:50:46.169Z,22.14
2018-06-14T06:51:46.157Z,22.14
2018-06-14T06:52:46.378Z,22.14
2018-06-14T06:53:46.199Z,22.14
2018-06-14T06:54:46.356Z,22.17
2018-06-14T06:55:46.260Z,22.17
2018-06-14T06:56:46.305Z,22.15
2018-06-14T06:57:46.450Z,22.16
2018-06-14T06:58:46.141Z,22.14
2018-06-14T06:59:46.273Z,22.15
2018-06-14T07:00:46.347Z,22.15
2018-06-14T07:01:46.198Z,22.16
2018-06-14T07:02:46.361Z,22.14
2018-06-14T07:03:46.119Z,22.15
2018-06-14T07:04:46.285Z,22.16
2018-06-14T07:05:46.296Z,22.12
2018-06-14T07:06:46.427Z,22.13
2018-06-14T07:07:46.330Z,22.13
2018-06-14T07:08:46.336Z,22.11
2018-06-14T07:09:56.186Z,22.14
2018-06-14T07:10:46.267Z,22.15
2018-06-14T07:11:46.362Z,22.15
2018-06-14T07:12:46.291Z,22.17
2018-06-14T07:13:46.346Z,22.16
2018-06-14T07:14:46.156Z,22.16
2018-06-14T07:15:46.141Z,22.15
2018-06-14T07:16:46.348Z,22.17
2018-06-14T07:17:46.260Z,22.16
2018-06-14T07:18:46.425Z,22.18
2018-06-14T07:19:46.366Z,22.18
2018-06-14T07:20:46.371Z,22.18
2018-06-14T07:21:46.357Z,22.15
2018-06-14T07:22:46.241Z,22.17
2018-06-14T07:23:46.262Z,22.16
2018-06-14T07:24:46.289Z,22.17
2018-06-14T07:25:46.258Z,22.19
2018-06-14T07:26:46.301Z,22.18
2018-06-14T07:27:46.192Z,22.2
2018-06-14T07:28:46.263Z,22.23
2018-06-14T07:29:46.195Z,22.23
2018-06-14T07:30:46.154Z,22.23
2018-06-14T07:31:46.267Z,22.24
2018-06-14T07:32:46.139Z,22.24
2018-06-14T07:33:46.359Z,22.26
2018-06-14T07:34:46.371Z,22.26
2018-06-14T07:35:46.360Z,22.27
2018-06-14T07:36:46.288Z,22.28
2018-06-14T07:37:46.328Z,22.28
2018-06-14T07:38:46.126Z,22.29
2018-06-14T07:39:46.320Z,22.28
2018-06-14T07:40:46.329Z,22.29
2018-06-14T07:41:46.358Z,22.29
2018-06-14T07:42:46.304Z,22.3
2018-06-14T07:43:46.320Z,22.29
2018-06-14T07:44:46.222Z,22.3
2018-06-14T07:45:46.244Z,22.31
2018-06-14T07:46:46.112Z,22.31
2018-06-14T07:47:46.124Z,22.29
2018-06-14T07:48:46.138Z,22.33
2018-06-14T07:49:46.310Z,22.34
2018-06-14T07:50:46.189Z,22.34
2018-06-14T07:51:46.355Z,22.33
2018-06-14T07:52:46.354Z,22.32
2018-06-14T07:53:46.137Z,22.28
2018-06-14T07:54:46.212Z,22.3
2018-06-14T07:55:46.253Z,22.27
2018-06-14T07:56:46.318Z,22.26
2018-06-14T07:57:46.207Z,22.25
2018-06-14T07:58:46.136Z,22.23
2018-06-14T07:59:46.202Z,22.23
2018-06-14T08:00:46.316Z,22.24
2018-06-14T08:01:46.287Z,22.23
2018-06-14T08:02:46.361Z,22.22
2018-06-14T08:03:46.306Z,22.21
2018-06-14T08:04:46.094Z,22.22
2018-06-14T08:05:46.222Z,22.19
2018-06-14T08:06:46.156Z,22.2
2018-06-14T08:07:46.201Z,22.2
2018-06-14T08:08:56.153Z,22.13
2018-06-14T08:09:46.189Z,22.19
2018-06-14T08:10:46.433Z,22.16
2018-06-14T08:11:46.333Z,22.16
2018-06-14T08:12:46.333Z,22.16
2018-06-14T08:13:46.090Z,22.15
2018-06-14T08:14:46.349Z,22.15
2018-06-14T08:15:46.274Z,22.15
2018-06-14T08:16:46.273Z,22.15
2018-06-14T08:17:46.261Z,22.14
2018-06-14T08:18:46.288Z,22.14
2018-06-14T08:19:46.138Z,22.14
2018-06-14T08:20:46.197Z,22.13
2018-06-14T08:21:46.128Z,22.13
2018-06-14T08:22:46.189Z,22.14
2018-06-14T08:23:46.282Z,22.13
2018-06-14T08:24:46.307Z,22.13
2018-06-14T08:25:46.440Z,22.12
2018-06-14T08:26:46.281Z,22.11
2018-06-14T08:27:46.174Z,22.12
2018-06-14T08:28:46.297Z,22.12
2018-06-14T08:29:46.132Z,22.12
2018-06-14T08:30:46.322Z,22.12
2018-06-14T08:31:46.178Z,22.11
2018-06-14T08:32:46.401Z,22.11
2018-06-14T08:33:46.318Z,22.1
2018-06-14T08:34:46.241Z,22.11
2018-06-14T08:35:46.259Z,22.1
2018-06-14T08:36:46.150Z,22.11
2018-06-14T08:37:46.222Z,22.12
2018-06-14T08:38:46.212Z,22.12
2018-06-14T08:39:46.242Z,22.11
2018-06-14T08:40:46.265Z,22.11
2018-06-14T08:41:46.323Z,22.11
2018-06-14T08:42:46.199Z,22.1
2018-06-14T08:43:46.220Z,22.11
2018-06-14T08:44:46.353Z,22.09
2018-06-14T08:45:46.324Z,22.1
2018-06-14T08:46:47.232Z,22.1
2018-06-14T08:47:46.239Z,22.09
2018-06-14T08:48:46.324Z,22.1
2018-06-14T08:49:46.115Z,22.1
2018-06-14T08:50:46.247Z,22.09
2018-06-14T08:51:46.227Z,22.09
2018-06-14T08:52:46.401Z,22.09
2018-06-14T08:53:46.427Z,22.08
2018-06-14T08:54:46.296Z,22.08
2018-06-14T08:55:46.106Z,22.09
2018-06-14T08:56:46.122Z,22.08
2018-06-14T08:57:46.969Z,22.07
2018-06-14T08:58:46.337Z,22.08
2018-06-14T08:59:46.247Z,22.07
2018-06-14T09:00:46.285Z,22.07
2018-06-14T09:01:46.254Z,22.08
2018-06-14T09:02:46.339Z,22.07
2018-06-14T09:03:46.349Z,22.07
2018-06-14T09:04:46.361Z,22.07
2018-06-14T09:05:46.117Z,22.06
2018-06-14T09:06:46.321Z,22.07
2018-06-14T09:07:46.436Z,22.07
2018-06-14T09:08:46.186Z,22.06
2018-06-14T09:09:46.955Z,22.06
2018-06-14T09:10:46.193Z,22.07
2018-06-14T09:11:46.299Z,22.06
2018-06-14T09:12:46.988Z,22.06
2018-06-14T09:13:46.169Z,22.06
2018-06-14T09:14:46.251Z,22.05
2018-06-14T09:15:46.730Z,22.06
2018-06-14T09:16:46.515Z,22.07
2018-06-14T09:17:46.525Z,22.05
2018-06-14T09:18:46.602Z,22.06
2018-06-14T09:19:46.526Z,22.06
2018-06-14T09:20:46.644Z,22.05
2018-06-14T09:21:46.127Z,22.06
2018-06-14T09:22:46.521Z,22.06
2018-06-14T09:23:46.202Z,22.05
2018-06-14T09:24:46.698Z,22.05
2018-06-14T09:25:46.212Z,22.05
2018-06-14T09:26:46.129Z,22.05
2018-06-14T09:27:46.192Z,22.05
2018-06-14T09:28:46.558Z,22.06
2018-06-14T09:29:46.531Z,22.05
2018-06-14T09:30:49.300Z,22.05
2018-06-14T09:31:46.057Z,22.05
2018-06-14T09:32:46.111Z,22.05
2018-06-14T09:33:46.153Z,22.04
2018-06-14T09:34:46.221Z,22.05
2018-06-14T09:35:46.650Z,22.04
2018-06-14T09:36:46.246Z,22.05
2018-06-14T09:37:46.581Z,22.05
2018-06-14T09:38:46.580Z,22.05
2018-06-14T09:39:46.536Z,22.05
2018-06-14T09:40:46.589Z,22.04
2018-06-14T09:41:46.133Z,22.03
2018-06-14T09:42:46.566Z,22.04
2018-06-14T09:43:46.271Z,22.03
2018-06-14T09:44:48.800Z,22.03
2018-06-14T09:45:47.611Z,22.05
2018-06-14T09:46:46.197Z,22.06
2018-06-14T09:47:49.053Z,22.07
2018-06-14T09:48:46.226Z,22.04
2018-06-14T09:49:46.214Z,22.06
2018-06-14T09:50:46.093Z,22.1
2018-06-14T09:51:46.174Z,22.08
2018-06-14T09:52:46.212Z,22.1
2018-06-14T09:53:46.347Z,22.11
2018-06-14T09:54:46.292Z,22.15
2018-06-14T09:55:46.209Z,22.17
2018-06-14T09:56:46.447Z,22.18
2018-06-14T09:57:46.174Z,22.18
2018-06-14T09:58:46.366Z,22.2
2018-06-14T09:59:46.161Z,22.18
2018-06-14T10:00:46.124Z,22.17
2018-06-14T10:01:46.279Z,22.18
2018-06-14T10:02:46.255Z,22.15
2018-06-14T10:03:46.358Z,22.19
2018-06-14T10:04:46.303Z,22.2
2018-06-14T10:05:46.304Z,22.2
2018-06-14T10:06:46.172Z,22.21
2018-06-14T10:07:46.236Z,22.22
2018-06-14T10:08:46.171Z,22.23
2018-06-14T10:09:46.238Z,22.24
2018-06-14T10:10:46.187Z,22.26
2018-06-14T10:11:46.277Z,22.24
2018-06-14T10:12:46.289Z,22.26
2018-06-14T10:13:46.345Z,22.25
2018-06-14T10:14:46.217Z,22.26
2018-06-14T10:15:46.300Z,22.27
2018-06-14T10:16:46.163Z,22.27
2018-06-14T10:17:46.236Z,22.28
2018-06-14T10:18:46.378Z,22.3
2018-06-14T10:19:46.258Z,22.31
2018-06-14T10:20:46.274Z,22.31
2018-06-14T10:21:46.567Z,22.3
2018-06-14T10:22:46.074Z,22.27
2018-06-14T10:23:46.132Z,22.27
2018-06-14T10:24:46.329Z,22.26
2018-06-14T10:25:46.293Z,22.29
2018-06-14T10:26:46.053Z,22.29
2018-06-14T10:27:46.079Z,22.32
2018-06-14T10:28:46.198Z,22.32
2018-06-14T10:29:46.278Z,22.3
2018-06-14T10:30:46.331Z,22.33
2018-06-14T10:31:46.148Z,22.35
2018-06-14T10:32:46.268Z,22.31
2018-06-14T10:33:46.150Z,22.33
2018-06-14T10:34:46.232Z,22.33
2018-06-14T10:35:46.007Z,22.33
2018-06-14T10:36:46.253Z,22.33
2018-06-14T10:37:46.112Z,22.34
2018-06-14T10:38:46.119Z,22.33
2018-06-14T10:39:46.163Z,22.35
2018-06-14T10:40:46.366Z,22.35
2018-06-14T10:41:46.263Z,22.34
2018-06-14T10:42:46.138Z,22.36
2018-06-14T10:43:46.286Z,22.35
2018-06-14T10:44:46.058Z,22.36
2018-06-14T10:45:46.397Z,22.37
2018-06-14T10:46:46.257Z,22.36
2018-06-14T10:47:46.197Z,22.35
2018-06-14T10:48:46.093Z,22.35
2018-06-14T10:49:46.154Z,22.34
2018-06-14T10:50:46.145Z,22.31
2018-06-14T10:51:46.226Z,22.31
2018-06-14T10:52:46.126Z,22.31
2018-06-14T10:53:46.172Z,22.31
2018-06-14T10:54:46.334Z,22.3
2018-06-14T10:55:46.342Z,22.3
2018-06-14T10:56:46.193Z,22.3
2018-06-14T10:57:46.242Z,22.31
2018-06-14T10:58:46.043Z,22.29
2018-06-14T10:59:46.353Z,22.29
2018-06-14T11:00:46.324Z,22.29
2018-06-14T11:01:46.307Z,22.29
2018-06-14T11:02:46.266Z,22.27
2018-06-14T11:03:46.272Z,22.28
2018-06-14T11:04:46.314Z,22.27
2018-06-14T11:05:46.278Z,22.26
2018-06-14T11:06:46.234Z,22.26
2018-06-14T11:07:46.321Z,22.24
2018-06-14T11:08:46.194Z,22.23
2018-06-14T11:09:46.197Z,22.23
2018-06-14T11:10:46.275Z,22.26
2018-06-14T11:11:46.227Z,22.25
2018-06-14T11:12:46.240Z,22.24
2018-06-14T11:13:46.101Z,22.24
2018-06-14T11:14:46.697Z,22.22
2018-06-14T11:15:46.338Z,22.23
2018-06-14T11:16:46.344Z,22.23
2018-06-14T11:17:46.355Z,22.22
2018-06-14T11:18:46.289Z,22.21
2018-06-14T11:19:46.234Z,22.21
2018-06-14T11:20:46.218Z,22.2
2018-06-14T11:21:46.270Z,22.18
2018-06-14T11:22:46.364Z,22.2
2018-06-14T11:23:46.354Z,22.18
2018-06-14T11:24:46.134Z,22.2
2018-06-14T11:25:46.244Z,22.18
2018-06-14T11:26:46.101Z,22.17
2018-06-14T11:27:46.207Z,22.17
2018-06-14T11:28:46.334Z,22.17
2018-06-14T11:29:46.153Z,22.17
2018-06-14T11:30:46.437Z,22.17
2018-06-14T11:31:46.308Z,22.17
2018-06-14T11:32:46.238Z,22.16
2018-06-14T11:33:46.161Z,22.18
2018-06-14T11:34:46.134Z,22.16
2018-06-14T11:35:46.223Z,22.15
2018-06-14T11:36:46.187Z,22.16
2018-06-14T11:37:46.394Z,22.16
2018-06-14T11:38:46.197Z,22.15
2018-06-14T11:39:46.337Z,22.16
2018-06-14T11:40:46.170Z,22.16
2018-06-14T11:41:46.310Z,22.15
2018-06-14T11:42:46.043Z,22.16
2018-06-14T11:43:46.381Z,22.15
2018-06-14T11:44:46.256Z,22.14
2018-06-14T11:45:46.334Z,22.14
2018-06-14T11:46:46.307Z,22.14
2018-06-14T11:47:46.222Z,22.14
2018-06-14T11:48:46.338Z,22.14
2018-06-14T11:49:46.343Z,22.14
2018-06-14T11:50:46.130Z,22.13
2018-06-14T11:51:46.068Z,22.12
2018-06-14T11:52:46.039Z,22.12
2018-06-14T11:53:46.301Z,22.12
2018-06-14T11:54:46.397Z,22.12
2018-06-14T11:55:46.162Z,22.12
2018-06-14T11:56:46.306Z,22.12
2018-06-14T11:57:46.208Z,22.11
2018-06-14T11:58:46.116Z,22.12
2018-06-14T11:59:46.102Z,22.12
2018-06-14T12:00:46.060Z,22.11
2018-06-14T12:01:46.324Z,22.13
2018-06-14T12:02:46.324Z,22.12
2018-06-14T12:03:46.044Z,22.12
2018-06-14T12:04:46.110Z,22.1
2018-06-14T12:05:46.371Z,22.11
2018-06-14T12:06:46.151Z,22.12
2018-06-14T12:07:46.275Z,22.12
2018-06-14T12:08:46.436Z,22.12
2018-06-14T12:09:46.110Z,22.12
2018-06-14T12:10:46.261Z,22.12
2018-06-14T12:11:46.291Z,22.12
2018-06-14T12:12:46.191Z,22.12
2018-06-14T12:13:46.339Z,22.12
2018-06-14T12:14:46.229Z,22.12
2018-06-14T12:15:46.151Z,22.11
2018-06-14T12:16:46.229Z,22.12
2018-06-14T12:17:46.302Z,22.12
2018-06-14T12:18:46.047Z,22.11
2018-06-14T12:19:46.215Z,22.11
2018-06-14T12:20:46.241Z,22.1
2018-06-14T12:21:46.279Z,22.1
2018-06-14T12:22:46.292Z,22.11
2018-06-14T12:23:46.365Z,22.1
2018-06-14T12:24:46.278Z,22.11
2018-06-14T12:25:46.140Z,22.1
2018-06-14T12:26:46.312Z,22.1
2018-06-14T12:27:46.107Z,22.11
2018-06-14T12:28:46.152Z,22.1
2018-06-14T12:29:46.156Z,22.09
2018-06-14T12:30:46.464Z,22.09
2018-06-14T12:31:46.250Z,22.1
2018-06-14T12:32:46.205Z,22.09
2018-06-14T12:33:46.340Z,22.09
2018-06-14T12:34:46.253Z,22.09
2018-06-14T12:35:46.276Z,22.12
2018-06-14T12:36:46.652Z,22.11
2018-06-14T12:37:46.415Z,22.1
2018-06-14T12:38:46.186Z,22.09
2018-06-14T12:39:46.274Z,22.1
2018-06-14T12:40:46.046Z,22.1
2018-06-14T12:41:46.274Z,22.08
2018-06-14T12:42:46.236Z,22.09
2018-06-14T12:43:46.174Z,22.1
2018-06-14T12:44:46.251Z,22.09
2018-06-14T12:45:46.310Z,22.09
2018-06-14T12:46:46.356Z,22.1
2018-06-14T12:47:46.253Z,22.09
2018-06-14T12:48:46.071Z,22.09
2018-06-14T12:49:46.278Z,22.09
2018-06-14T12:50:46.191Z,22.09
2018-06-14T12:51:46.195Z,22.08
2018-06-14T12:52:46.314Z,22.08
2018-06-14T12:53:46.562Z,22.08
2018-06-14T12:54:46.132Z,22.08